Time;durP1;ratioP1;P1;durP2;ratioP2;P2;SDS_P1;SDS_P2;PMS_P1;PMS_P2;Temp;Humidity;BMP_temperature;BMP_pressure;BME280_temperature;BME280_humidity;BME280_pressure;Samples;Min_cycle;Max_cycle;Signal;HPM_P1;HPM_P2
2023/09/06 00:00:32;;;;;;;7.50;4.53;;;;;;;19.45;100.00;101788.94;5083402;28;20024;-74
2023/09/06 00:02:58;;;;;;;5.65;4.15;;;;;;;19.48;100.00;101791.97;5087258;28;20114;-74
2023/09/06 00:05:24;;;;;;;7.35;4.32;;;;;;;19.53;100.00;101793.19;5089326;28;20111;-74
2023/09/06 00:07:50;;;;;;;8.73;4.65;;;;;;;19.52;100.00;101780.69;5081095;28;20028;-75
2023/09/06 00:10:15;;;;;;;8.30;4.15;;;;;;;19.57;100.00;101778.09;5082512;28;20047;-74
2023/09/06 00:12:42;;;;;;;8.15;4.65;;;;;;;19.53;100.00;101772.34;5083041;28;20111;-74
2023/09/06 00:15:08;;;;;;;6.18;4.25;;;;;;;19.58;100.00;101775.19;5087999;28;20514;-74
2023/09/06 00:17:37;;;;;;;4.93;3.65;;;;;;;19.56;100.00;101768.34;5081032;28;20047;-74
2023/09/06 00:20:16;;;;;;;5.03;3.85;;;;;;;19.60;100.00;101767.66;5086541;28;20123;-74
2023/09/06 00:22:41;;;;;;;6.72;4.00;;;;;;;19.63;100.00;101780.72;5085992;28;20035;-74
2023/09/06 00:25:08;;;;;;;6.10;3.88;;;;;;;19.64;100.00;101776.13;5088900;28;20546;-74
2023/09/06 00:27:33;;;;;;;6.38;4.03;;;;;;;19.60;100.00;101775.78;5077127;28;20115;-75
2023/09/06 00:29:58;;;;;;;7.50;4.25;;;;;;;19.61;100.00;101774.69;5077621;28;20107;-74
2023/09/06 00:32:24;;;;;;;4.28;3.65;;;;;;;19.54;100.00;101765.03;5051771;28;20399;-74
2023/09/06 00:34:49;;;;;;;8.23;4.45;;;;;;;19.58;100.00;101777.06;5077666;28;20043;-74
2023/09/06 00:37:14;;;;;;;7.80;4.72;;;;;;;19.57;100.00;101775.41;5073143;28;20052;-74
2023/09/06 00:39:40;;;;;;;8.20;3.45;;;;;;;19.51;100.00;101766.34;5055375;28;20086;-74
2023/09/06 00:42:05;;;;;;;6.20;4.10;;;;;;;19.46;100.00;101771.63;5075272;28;20036;-74
2023/09/06 00:44:30;;;;;;;6.80;4.20;;;;;;;19.43;100.00;101766.69;5071355;28;20482;-74
2023/09/06 00:46:56;;;;;;;7.45;4.18;;;;;;;19.35;100.00;101764.31;5075750;28;20478;-74
2023/09/06 00:49:21;;;;;;;6.60;3.90;;;;;;;19.35;100.00;101778.66;5074693;28;20040;-74
2023/09/06 00:51:46;;;;;;;6.85;4.05;;;;;;;19.26;100.00;101774.66;5078518;28;20115;-74
2023/09/06 00:54:12;;;;;;;8.40;5.15;;;;;;;19.11;100.00;101785.09;5076330;28;20039;-74
2023/09/06 00:56:39;;;;;;;8.27;3.88;;;;;;;18.92;100.00;101785.13;5074417;28;20044;-74
2023/09/06 00:59:05;;;;;;;5.75;3.80;;;;;;;18.80;100.00;101793.19;5084109;28;20040;-74
2023/09/06 01:01:33;;;;;;;5.80;4.07;;;;;;;18.74;100.00;101794.09;5088347;28;20152;-75
2023/09/06 01:03:59;;;;;;;8.25;4.00;;;;;;;18.59;100.00;101785.53;5070988;28;20081;-74
2023/09/06 01:06:28;;;;;;;6.88;4.55;;;;;;;18.48;100.00;101792.53;5071274;28;20034;-74
2023/09/06 01:09:02;;;;;;;7.07;4.35;;;;;;;18.35;100.00;101790.81;5088936;28;20073;-74
2023/09/06 01:11:28;;;;;;;9.18;5.10;;;;;;;18.24;100.00;101799.66;5070969;28;20432;-74
2023/09/06 01:13:55;;;;;;;8.25;5.07;;;;;;;18.27;100.00;101801.09;5088934;28;20063;-75
2023/09/06 01:16:30;;;;;;;7.57;5.35;;;;;;;18.24;100.00;101810.47;5079437;28;20411;-75
2023/09/06 01:18:56;;;;;;;11.15;5.68;;;;;;;18.07;100.00;101787.78;5072686;28;20111;-75
2023/09/06 01:21:26;;;;;;;7.78;5.20;;;;;;;18.05;100.00;101796.13;5082545;28;20067;-74
2023/09/06 01:23:52;;;;;;;7.95;4.43;;;;;;;18.07;100.00;101798.59;5081643;28;20069;-75
2023/09/06 01:26:18;;;;;;;6.45;4.15;;;;;;;18.08;100.00;101797.56;5080309;28;20059;-75
2023/09/06 01:28:43;;;;;;;10.60;4.82;;;;;;;18.04;100.00;101789.06;5075907;28;20463;-74
2023/09/06 01:31:09;;;;;;;9.05;4.95;;;;;;;17.98;100.00;101789.97;5078126;28;20115;-74
2023/09/06 01:33:35;;;;;;;11.68;4.28;;;;;;;17.92;100.00;101794.38;5088966;28;20042;-74
2023/09/06 01:36:00;;;;;;;11.27;4.63;;;;;;;17.82;100.00;101788.66;5087592;28;20067;-75
2023/09/06 01:38:25;;;;;;;9.13;4.97;;;;;;;17.86;100.00;101787.16;5088566;28;20028;-75
2023/09/06 01:40:52;;;;;;;11.23;4.63;;;;;;;17.80;100.00;101781.84;5079268;28;20064;-75
2023/09/06 01:43:18;;;;;;;9.90;5.13;;;;;;;17.82;100.00;101791.38;5087828;28;20123;-74
2023/09/06 01:45:50;;;;;;;8.27;5.15;;;;;;;17.82;100.00;101787.84;5079615;28;20090;-75
2023/09/06 01:48:19;;;;;;;7.95;4.95;;;;;;;17.86;100.00;101797.13;5082401;28;20057;-75
2023/09/06 01:50:44;;;;;;;9.00;5.35;;;;;;;17.86;100.00;101787.16;5087174;28;20119;-74
2023/09/06 01:53:11;;;;;;;9.40;5.07;;;;;;;17.91;100.00;101786.50;5081216;28;20119;-75
2023/09/06 01:55:36;;;;;;;15.82;6.68;;;;;;;17.98;100.00;101789.16;5084582;28;20036;-75
2023/09/06 01:58:03;;;;;;;13.30;6.22;;;;;;;18.01;100.00;101789.53;5088094;28;20039;-74
2023/09/06 02:00:31;;;;;;;7.88;5.00;;;;;;;18.03;100.00;101792.84;5079824;28;20052;-75
2023/09/06 02:03:00;;;;;;;9.95;5.47;;;;;;;18.08;100.00;101789.47;5069066;28;20032;-75
2023/09/06 02:05:25;;;;;;;12.52;6.00;;;;;;;18.10;100.00;101790.91;5072024;28;20039;-74
2023/09/06 02:07:51;;;;;;;8.23;5.47;;;;;;;18.14;100.00;101792.09;5076197;28;20037;-74
2023/09/06 02:10:17;;;;;;;11.25;4.95;;;;;;;18.11;100.00;101787.13;5069056;28;20475;-74
2023/09/06 02:12:43;;;;;;;8.68;5.68;;;;;;;18.17;100.00;101794.31;5087480;28;20040;-75
2023/09/06 02:15:13;;;;;;;7.53;4.93;;;;;;;18.12;100.00;101786.06;5080475;28;20024;-74
2023/09/06 02:17:39;;;;;;;8.50;5.60;;;;;;;18.15;100.00;101796.41;5070251;28;20043;-75
2023/09/06 02:20:19;;;;;;;7.80;5.03;;;;;;;18.16;100.00;101792.69;5079219;28;20383;-75
2023/09/06 02:22:46;;;;;;;10.57;5.10;;;;;;;18.14;100.00;101797.47;5087289;28;20440;-75
2023/09/06 02:25:13;;;;;;;10.15;5.70;;;;;;;18.15;100.00;101795.59;5088065;28;20035;-74
2023/09/06 02:27:40;;;;;;;11.52;5.20;;;;;;;18.13;100.00;101801.25;5078505;28;20042;-74
2023/09/06 02:30:06;;;;;;;12.57;5.85;;;;;;;18.11;100.00;101791.72;5084384;28;20447;-75
2023/09/06 02:32:34;;;;;;;9.00;5.07;;;;;;;18.10;100.00;101798.16;5078933;28;20052;-75
2023/09/06 02:35:00;;;;;;;7.82;5.00;;;;;;;18.08;100.00;101795.69;5091551;28;20128;-75
2023/09/06 02:37:26;;;;;;;8.98;5.03;;;;;;;17.95;100.00;101804.75;5083290;28;20059;-75
2023/09/06 02:39:54;;;;;;;6.43;4.30;;;;;;;17.77;100.00;101795.75;5076325;28;20633;-74
2023/09/06 02:42:20;;;;;;;7.93;4.38;;;;;;;17.63;100.00;101806.66;5088158;28;20039;-75
2023/09/06 02:44:46;;;;;;;9.57;5.38;;;;;;;17.51;100.00;101806.53;5086610;28;20467;-75
2023/09/06 02:47:11;;;;;;;8.60;5.25;;;;;;;17.39;100.00;101813.66;5072459;28;20040;-75
2023/09/06 02:49:41;;;;;;;8.93;5.15;;;;;;;17.31;100.00;101813.94;5076243;28;20476;-75
2023/09/06 02:52:12;;;;;;;8.45;5.82;;;;;;;17.21;100.00;101802.81;5091200;28;20449;-75
2023/09/06 02:54:42;;;;;;;9.75;5.82;;;;;;;17.22;100.00;101815.25;5079720;28;20028;-75
2023/09/06 02:57:10;;;;;;;11.80;6.18;;;;;;;17.19;100.00;101813.00;5074495;28;20063;-75
2023/09/06 02:59:35;;;;;;;11.38;7.18;;;;;;;17.11;100.00;101822.16;5084480;28;20471;-75
2023/09/06 03:02:05;;;;;;;7.82;4.90;;;;;;;17.00;100.00;101812.03;5078053;28;20043;-75
2023/09/06 03:04:35;;;;;;;10.60;6.00;;;;;;;17.01;100.00;101814.53;5087437;28;20082;-75
2023/09/06 03:07:06;;;;;;;8.43;5.32;;;;;;;16.99;100.00;101815.78;5081933;28;20395;-75
2023/09/06 03:09:32;;;;;;;8.45;6.65;;;;;;;16.92;100.00;101813.13;5089672;28;20138;-75
2023/09/06 03:11:57;;;;;;;10.68;5.88;;;;;;;16.89;100.00;101815.44;5084511;28;20119;-75
2023/09/06 03:14:30;;;;;;;11.45;6.72;;;;;;;16.88;100.00;101814.63;5075525;28;20036;-75
2023/09/06 03:16:57;;;;;;;9.43;6.15;;;;;;;16.82;100.00;101820.84;5077280;28;20111;-75
2023/09/06 03:19:22;;;;;;;7.88;5.78;;;;;;;16.71;100.00;101825.00;5088240;28;20036;-74
2023/09/06 03:21:48;;;;;;;10.70;6.32;;;;;;;16.67;100.00;101815.72;5076290;28;20024;-75
2023/09/06 03:24:13;;;;;;;9.48;5.95;;;;;;;16.61;100.00;101811.16;5073146;28;20028;-74
2023/09/06 03:26:43;;;;;;;11.85;6.60;;;;;;;16.61;100.00;101822.78;5086418;28;20080;-75
2023/09/06 03:29:10;;;;;;;12.05;6.25;;;;;;;16.56;100.00;101816.38;5090871;28;20819;-74
2023/09/06 03:31:42;;;;;;;11.30;6.25;;;;;;;16.51;100.00;101822.41;5081042;28;20143;-75
2023/09/06 03:34:08;;;;;;;14.70;7.30;;;;;;;16.52;100.00;101821.34;5089968;28;20032;-75
2023/09/06 03:36:35;;;;;;;11.80;6.35;;;;;;;16.53;100.00;101814.09;5074057;28;20119;-75
2023/09/06 03:39:01;;;;;;;9.20;5.47;;;;;;;16.48;100.00;101809.38;5078808;28;20036;-74
2023/09/06 03:41:26;;;;;;;7.95;5.68;;;;;;;16.44;100.00;101825.09;5082789;28;20032;-75
2023/09/06 03:43:53;;;;;;;8.52;5.68;;;;;;;16.43;100.00;101817.25;5083850;28;20028;-75
2023/09/06 03:46:20;;;;;;;9.40;5.72;;;;;;;16.36;100.00;101825.34;5083121;28;20024;-75
2023/09/06 03:48:46;;;;;;;11.00;6.28;;;;;;;16.33;100.00;101824.94;5083085;28;20033;-75
2023/09/06 03:51:13;;;;;;;10.70;5.93;;;;;;;16.27;100.00;101818.53;5079012;28;20039;-75
2023/09/06 03:53:38;;;;;;;10.05;6.35;;;;;;;16.32;100.00;101818.72;5077974;28;20475;-75
2023/09/06 03:56:05;;;;;;;11.00;6.72;;;;;;;16.21;100.00;101820.19;5073101;28;20047;-75
2023/09/06 03:58:30;;;;;;;12.90;7.25;;;;;;;16.15;100.00;101822.91;5088885;28;20077;-74
2023/09/06 04:00:56;;;;;;;11.27;6.65;;;;;;;16.16;100.00;101827.22;5075073;28;20036;-75
2023/09/06 04:03:22;;;;;;;11.90;7.05;;;;;;;16.14;100.00;101835.53;5076282;28;20072;-75
2023/09/06 04:05:48;;;;;;;9.75;6.35;;;;;;;16.09;100.00;101829.13;5089881;28;20020;-74
2023/09/06 04:08:19;;;;;;;11.10;6.35;;;;;;;16.11;100.00;101824.34;5075393;28;20104;-75
2023/09/06 04:10:45;;;;;;;14.30;6.95;;;;;;;16.12;100.00;101834.09;5074978;28;20032;-75
2023/09/06 04:13:12;;;;;;;11.23;7.45;;;;;;;16.14;100.00;101830.16;5089847;28;20059;-74
2023/09/06 04:15:39;;;;;;;11.95;7.40;;;;;;;16.13;100.00;101838.41;5082706;28;20032;-75
2023/09/06 04:18:07;;;;;;;10.77;6.15;;;;;;;15.99;100.00;101833.06;5076835;28;20067;-74
2023/09/06 04:20:36;;;;;;;12.10;7.85;;;;;;;16.03;100.00;101841.53;5081143;28;20063;-74
2023/09/06 04:23:06;;;;;;;8.98;6.10;;;;;;;16.02;100.00;101845.28;5079293;28;20046;-75
2023/09/06 04:25:33;;;;;;;13.20;6.43;;;;;;;15.94;100.00;101842.78;5083155;28;20122;-75
2023/09/06 04:28:07;;;;;;;10.43;6.63;;;;;;;15.84;100.00;101842.38;5077845;28;20021;-75
2023/09/06 04:30:35;;;;;;;11.88;6.63;;;;;;;15.83;100.00;101854.19;5088336;28;20028;-75
2023/09/06 04:33:01;;;;;;;12.23;6.93;;;;;;;15.76;100.00;101860.38;5074358;28;20053;-75
2023/09/06 04:35:33;;;;;;;12.18;6.65;;;;;;;15.78;100.00;101854.81;5078495;28;20035;-75
2023/09/06 04:37:59;;;;;;;15.73;8.10;;;;;;;15.78;100.00;101841.34;5087385;28;20031;-75
2023/09/06 04:40:25;;;;;;;13.30;7.63;;;;;;;15.80;100.00;101846.50;5087365;28;20032;-75
2023/09/06 04:42:51;;;;;;;10.95;6.80;;;;;;;15.74;100.00;101854.38;5081562;28;20458;-75
2023/09/06 04:45:16;;;;;;;17.92;7.53;;;;;;;15.74;100.00;101848.97;5079390;28;20119;-75
2023/09/06 04:47:43;;;;;;;16.38;7.82;;;;;;;15.73;100.00;101844.66;5081695;28;20109;-75
2023/09/06 04:50:11;;;;;;;13.48;7.28;;;;;;;15.77;100.00;101861.19;5084941;28;20062;-75
2023/09/06 04:52:42;;;;;;;13.50;6.95;;;;;;;15.85;100.00;101852.94;5085515;28;20107;-75
2023/09/06 04:55:08;;;;;;;13.45;7.28;;;;;;;15.85;100.00;101855.63;5087569;28;20051;-75
2023/09/06 04:57:36;;;;;;;11.68;7.07;;;;;;;15.81;100.00;101849.00;5070808;28;20028;-75
2023/09/06 05:00:06;;;;;;;13.75;8.25;;;;;;;15.85;100.00;101854.78;5088238;28;20032;-75
2023/09/06 05:02:32;;;;;;;13.00;9.35;;;;;;;15.84;100.00;101845.91;5079639;28;20399;-75
2023/09/06 05:04:59;;;;;;;14.23;8.57;;;;;;;15.89;100.00;101845.28;5088363;28;20043;-74
2023/09/06 05:07:24;;;;;;;12.88;7.82;;;;;;;16.00;100.00;101852.72;5088506;28;20093;-74
2023/09/06 05:09:53;;;;;;;13.90;8.23;;;;;;;16.03;100.00;101854.16;5085463;28;20482;-75
2023/09/06 05:12:21;;;;;;;12.52;6.68;;;;;;;16.04;100.00;101864.72;5069776;28;20036;-74
2023/09/06 05:14:47;;;;;;;15.02;6.97;;;;;;;16.05;100.00;101868.25;5081731;28;20038;-75
2023/09/06 05:17:13;;;;;;;13.45;6.88;;;;;;;16.05;100.00;101865.56;5085545;28;20028;-74
2023/09/06 05:19:38;;;;;;;13.13;7.97;;;;;;;16.12;100.00;101866.38;5072651;28;20030;-75
2023/09/06 05:22:04;;;;;;;14.60;8.43;;;;;;;16.14;100.00;101867.00;5077810;28;20036;-75
2023/09/06 05:24:29;;;;;;;12.13;7.15;;;;;;;16.14;100.00;101870.53;5085068;28;20111;-75
2023/09/06 05:26:55;;;;;;;12.40;8.20;;;;;;;16.16;100.00;101870.28;5068358;28;20028;-75
2023/09/06 05:29:20;;;;;;;12.55;8.02;;;;;;;16.09;100.00;101878.41;5081404;28;20028;-75
2023/09/06 05:31:46;;;;;;;10.90;7.35;;;;;;;16.04;100.00;101886.25;5075375;28;20029;-75
2023/09/06 05:34:12;;;;;;;10.80;7.13;;;;;;;16.04;100.00;101885.44;5079439;28;20044;-75
2023/09/06 05:36:37;;;;;;;12.60;8.20;;;;;;;16.03;100.00;101889.16;5073716;28;20121;-75
2023/09/06 05:39:06;;;;;;;12.77;8.45;;;;;;;16.02;100.00;101882.13;5069878;28;20031;-74
2023/09/06 05:41:32;;;;;;;14.48;8.57;;;;;;;16.05;100.00;101887.09;5084248;28;20410;-75
2023/09/06 05:43:57;;;;;;;13.00;7.47;;;;;;;16.05;100.00;101893.28;5077104;28;20028;-75
2023/09/06 05:46:23;;;;;;;12.95;7.80;;;;;;;16.09;100.00;101883.78;5073691;28;20061;-75
2023/09/06 05:48:48;;;;;;;13.25;7.63;;;;;;;16.14;100.00;101883.16;5072335;28;20099;-74
2023/09/06 05:51:13;;;;;;;14.80;8.32;;;;;;;16.18;100.00;101892.47;5067750;28;20494;-74
2023/09/06 05:53:39;;;;;;;15.40;8.95;;;;;;;16.23;100.00;101895.34;5077612;28;20563;-74
2023/09/06 05:56:04;;;;;;;23.10;8.70;;;;;;;16.25;100.00;101889.78;5067870;28;20035;-75
2023/09/06 05:58:35;;;;;;;15.65;9.82;;;;;;;16.34;100.00;101894.72;5088223;28;20039;-75
2023/09/06 06:01:00;;;;;;;13.30;8.18;;;;;;;16.47;100.00;101898.44;5086469;28;20059;-74
2023/09/06 06:03:27;;;;;;;14.70;8.77;;;;;;;16.55;100.00;101900.88;5076713;28;20043;-75
2023/09/06 06:05:52;;;;;;;11.38;7.80;;;;;;;16.64;100.00;101903.16;5085451;28;20040;-75
2023/09/06 06:08:18;;;;;;;13.82;8.48;;;;;;;16.72;100.00;101904.78;5084045;28;20020;-75
2023/09/06 06:10:43;;;;;;;12.70;8.50;;;;;;;16.75;100.00;101895.47;5088447;28;20024;-74
2023/09/06 06:13:11;;;;;;;13.25;8.30;;;;;;;16.85;100.00;101901.28;5086370;28;20024;-75
2023/09/06 06:15:37;;;;;;;14.10;8.77;;;;;;;16.92;100.00;101910.13;5071993;28;20532;-74
2023/09/06 06:18:02;;;;;;;13.85;9.02;;;;;;;17.03;100.00;101908.66;5079880;28;20028;-74
2023/09/06 06:20:27;;;;;;;15.93;7.78;;;;;;;17.09;100.00;101910.50;5084724;28;20040;-74
2023/09/06 06:22:53;;;;;;;12.18;7.75;;;;;;;17.13;100.00;101902.81;5079030;28;20025;-75
2023/09/06 06:25:18;;;;;;;13.02;7.72;;;;;;;17.24;100.00;101915.63;5086351;28;20392;-74
2023/09/06 06:27:43;;;;;;;9.25;6.60;;;;;;;17.31;100.00;101911.00;5077278;28;20060;-75
2023/09/06 06:30:11;;;;;;;12.10;7.40;;;;;;;17.34;100.00;101901.66;5086950;28;20035;-75
2023/09/06 06:32:36;;;;;;;16.80;7.95;;;;;;;17.45;100.00;101914.47;5080781;28;20052;-76
2023/09/06 06:35:05;;;;;;;12.05;7.13;;;;;;;17.53;100.00;101916.91;5074933;28;20037;-76
2023/09/06 06:37:31;;;;;;;11.98;6.90;;;;;;;17.62;100.00;101923.69;5074281;28;20396;-76
2023/09/06 06:39:58;;;;;;;13.40;7.20;;;;;;;17.68;100.00;101920.16;5075302;28;20047;-76
2023/09/06 06:42:24;;;;;;;14.65;7.72;;;;;;;17.70;100.00;101917.22;5090507;28;20093;-76
2023/09/06 06:44:51;;;;;;;14.50;6.93;;;;;;;17.83;100.00;101922.53;5077020;28;20569;-74
2023/09/06 06:47:16;;;;;;;13.38;7.40;;;;;;;17.88;100.00;101913.81;5070401;28;20093;-73
2023/09/06 06:49:42;;;;;;;11.90;7.35;;;;;;;17.96;100.00;101922.44;5072096;28;20056;-73
2023/09/06 06:52:07;;;;;;;13.13;7.47;;;;;;;18.03;100.00;101924.28;5070529;28;20098;-73
2023/09/06 06:54:32;;;;;;;14.57;7.97;;;;;;;18.11;100.00;101929.41;5070500;28;20033;-73
2023/09/06 06:56:58;;;;;;;9.68;6.85;;;;;;;18.15;100.00;101933.31;5071044;28;20035;-73
2023/09/06 06:59:23;;;;;;;15.52;8.48;;;;;;;18.26;100.00;101935.31;5090629;28;20372;-73
2023/09/06 07:01:48;;;;;;;11.90;7.57;;;;;;;18.30;100.00;101925.69;5091157;28;20036;-73
2023/09/06 07:04:14;;;;;;;10.50;6.72;;;;;;;18.37;100.00;101925.66;5090886;28;20398;-73
2023/09/06 07:06:39;;;;;;;12.90;8.32;;;;;;;18.46;100.00;101932.41;5090790;28;20123;-73
2023/09/06 07:09:05;;;;;;;13.65;8.48;;;;;;;18.53;100.00;101926.94;5089252;28;20378;-73
2023/09/06 07:11:31;;;;;;;13.32;7.30;;;;;;;18.53;100.00;101914.25;5090883;28;20435;-73
2023/09/06 07:13:57;;;;;;;13.02;8.57;;;;;;;18.66;100.00;101932.22;5081901;28;20036;-73
2023/09/06 07:16:22;;;;;;;19.77;9.15;;;;;;;18.73;100.00;101924.88;5071141;28;20036;-73
2023/09/06 07:18:49;;;;;;;12.57;7.70;;;;;;;18.76;100.00;101921.75;5084565;28;20031;-73
2023/09/06 07:21:15;;;;;;;14.70;8.18;;;;;;;18.83;100.00;101921.66;5090385;28;20042;-73
2023/09/06 07:23:41;;;;;;;13.55;7.43;;;;;;;18.92;100.00;101928.44;5076049;28;20102;-73
2023/09/06 07:26:07;;;;;;;14.32;7.78;;;;;;;18.98;100.00;101918.56;5071209;28;20464;-76
2023/09/06 07:28:39;;;;;;;11.68;7.28;;;;;;;19.08;100.00;101923.47;5072134;28;21583;-73
2023/09/06 07:31:04;;;;;;;15.18;9.25;;;;;;;19.15;100.00;101924.19;5071293;28;20040;-74
2023/09/06 07:33:30;;;;;;;13.98;7.38;;;;;;;19.21;100.00;101924.09;5070255;28;20058;-74
2023/09/06 07:35:56;;;;;;;13.05;8.43;;;;;;;19.27;100.00;101917.78;5075750;28;20059;-74
2023/09/06 07:38:21;;;;;;;14.77;8.45;;;;;;;19.39;100.00;101923.25;5072448;28;20028;-74
2023/09/06 07:40:47;;;;;;;16.45;9.00;;;;;;;19.47;100.00;101927.53;5071940;28;20060;-76
2023/09/06 07:43:12;;;;;;;12.45;7.97;;;;;;;19.56;100.00;101928.81;5071260;28;20073;-76
2023/09/06 07:45:38;;;;;;;16.92;9.32;;;;;;;19.65;100.00;101935.59;5071516;28;20062;-73
2023/09/06 07:48:04;;;;;;;18.50;9.65;;;;;;;19.69;100.00;101934.06;5072637;28;20024;-75
2023/09/06 07:50:30;;;;;;;14.32;8.20;;;;;;;19.79;100.00;101943.53;5071021;28;20089;-74
2023/09/06 07:52:55;;;;;;;16.25;8.38;;;;;;;19.87;100.00;101943.19;5072556;28;20032;-76
2023/09/06 07:55:21;;;;;;;12.07;7.78;;;;;;;19.95;100.00;101942.84;5072265;28;20854;-75
2023/09/06 07:57:47;;;;;;;14.15;8.43;;;;;;;20.05;100.00;101940.41;5081498;28;20127;-76
2023/09/06 08:00:13;;;;;;;12.45;7.88;;;;;;;20.15;100.00;101939.84;5056760;28;20178;-72
2023/09/06 08:02:38;;;;;;;16.52;7.97;;;;;;;20.30;100.00;101948.34;5075582;28;20036;-72
2023/09/06 08:05:04;;;;;;;13.05;8.75;;;;;;;20.42;100.00;101945.63;5086309;28;21062;-72
2023/09/06 08:07:30;;;;;;;14.20;7.95;;;;;;;20.56;100.00;101943.50;5083042;28;20036;-72
2023/09/06 08:09:55;;;;;;;15.27;8.02;;;;;;;20.64;100.00;101945.84;5070529;28;20032;-73
2023/09/06 08:12:21;;;;;;;14.77;8.48;;;;;;;20.92;100.00;101945.13;5068794;28;20086;-73
2023/09/06 08:14:46;;;;;;;13.65;7.45;;;;;;;20.98;100.00;101936.00;5070241;28;20032;-72
2023/09/06 08:17:12;;;;;;;12.48;7.55;;;;;;;21.14;100.00;101937.19;5089045;28;20520;-73
2023/09/06 08:19:38;;;;;;;17.33;7.25;;;;;;;21.30;100.00;101943.72;5088022;28;20061;-73
2023/09/06 08:22:03;;;;;;;13.73;8.40;;;;;;;21.51;100.00;101934.13;5089182;28;20032;-73
2023/09/06 08:24:31;;;;;;;14.73;7.68;;;;;;;21.74;100.00;101944.00;5080236;28;20387;-74
2023/09/06 08:26:56;;;;;;;14.00;8.27;;;;;;;22.00;100.00;101947.16;5075743;28;20032;-74
2023/09/06 08:29:21;;;;;;;12.45;6.88;;;;;;;22.53;98.60;101943.97;5070099;28;20036;-74
2023/09/06 08:31:47;;;;;;;12.85;7.05;;;;;;;23.69;93.79;101946.72;5087742;28;20028;-74
2023/09/06 08:34:12;;;;;;;12.13;6.32;;;;;;;24.66;86.67;101947.50;5080889;28;20546;-74
2023/09/06 08:36:38;;;;;;;9.73;5.72;;;;;;;24.56;86.57;101947.44;5077976;28;20040;-75
2023/09/06 08:39:05;;;;;;;12.73;7.28;;;;;;;24.10;87.03;101945.16;5074504;28;20060;-73
2023/09/06 08:41:31;;;;;;;8.55;5.78;;;;;;;23.75;85.95;101942.97;5074163;28;20033;-74
2023/09/06 08:44:03;;;;;;;9.40;5.45;;;;;;;23.55;88.90;101941.69;5088133;28;20028;-74
2023/09/06 08:46:30;;;;;;;;;;;;;;;23.57;94.20;101944.94;5073842;28;20020;-74
2023/09/06 08:48:56;;;;;;;9.95;5.57;;;;;;;23.28;92.84;101941.66;5069553;28;19908;-74
2023/09/06 08:51:22;;;;;;;9.32;5.00;;;;;;;23.24;93.93;101945.97;5087764;28;20056;-74
2023/09/06 08:53:48;;;;;;;11.20;7.47;;;;;;;23.18;93.71;101947.78;5067636;28;20032;-74
2023/09/06 08:56:15;;;;;;;12.30;6.22;;;;;;;23.11;91.19;101933.59;5067654;28;20028;-74
2023/09/06 08:58:41;;;;;;;10.73;6.20;;;;;;;23.14;93.85;101940.41;5087072;28;20108;-74
2023/09/06 09:01:06;;;;;;;14.43;7.80;;;;;;;23.16;92.16;101938.25;5086669;28;20119;-74
2023/09/06 09:03:32;;;;;;;10.63;5.97;;;;;;;23.17;93.30;101938.00;5085738;28;20051;-74
2023/09/06 09:06:06;;;;;;;8.85;4.72;;;;;;;23.32;90.94;101944.72;5087440;28;20065;-74
2023/09/06 09:08:33;;;;;;;8.23;5.35;;;;;;;23.48;89.61;101945.69;5087466;28;20039;-74
2023/09/06 09:11:08;;;;;;;8.77;4.85;;;;;;;23.60;91.13;101943.63;5087638;28;20061;-74
2023/09/06 09:13:34;;;;;;;8.80;4.90;;;;;;;23.70;88.52;101948.34;5086067;28;20036;-74
2023/09/06 09:15:59;;;;;;;13.25;4.60;;;;;;;23.77;89.65;101951.72;5071653;28;20085;-74
2023/09/06 09:18:28;;;;;;;8.20;4.63;;;;;;;23.79;87.34;101946.84;5069203;28;20039;-74
2023/09/06 09:20:57;;;;;;;8.52;4.80;;;;;;;23.86;88.66;101941.97;5086912;28;20541;-74
2023/09/06 09:23:22;;;;;;;10.77;5.22;;;;;;;24.01;86.74;101953.00;5088352;28;20032;-74
2023/09/06 09:25:49;;;;;;;11.88;6.03;;;;;;;24.08;86.89;101955.53;5071927;28;20100;-74
2023/09/06 09:28:15;;;;;;;10.30;4.80;;;;;;;24.15;87.56;101949.84;5077041;28;20093;-74
2023/09/06 09:30:41;;;;;;;11.32;5.53;;;;;;;24.20;88.77;101941.72;5088352;28;20036;-74
2023/09/06 09:33:06;;;;;;;11.52;6.38;;;;;;;24.28;87.74;101949.41;5080780;28;20040;-74
2023/09/06 09:35:32;;;;;;;9.23;5.40;;;;;;;24.42;86.35;101945.13;5075675;28;20036;-74
2023/09/06 09:37:59;;;;;;;8.43;5.22;;;;;;;24.47;86.03;101944.34;5082615;28;20715;-74
2023/09/06 09:40:32;;;;;;;10.25;5.90;;;;;;;24.63;85.12;101954.31;5090789;28;20020;-74
2023/09/06 09:43:01;;;;;;;10.60;5.70;;;;;;;24.72;85.54;101946.41;5088028;28;20032;-75
2023/09/06 09:45:31;;;;;;;9.45;5.63;;;;;;;24.73;85.17;101948.06;5084886;28;20076;-74
2023/09/06 09:47:57;;;;;;;8.38;5.05;;;;;;;24.77;83.82;101946.44;5088065;28;20088;-74
2023/09/06 09:50:25;;;;;;;10.52;5.25;;;;;;;24.91;82.47;101944.88;5074392;28;20036;-74
2023/09/06 09:52:52;;;;;;;9.10;5.43;;;;;;;24.93;83.77;101936.41;5082766;28;20115;-75
2023/09/06 09:55:22;;;;;;;8.70;4.30;;;;;;;25.02;83.61;101918.47;5091539;28;20031;-74
2023/09/06 09:57:49;;;;;;;11.60;4.43;;;;;;;25.11;78.17;101924.22;5072585;28;20074;-73
2023/09/06 10:00:15;;;;;;;6.30;3.55;;;;;;;25.26;78.67;101927.00;5082539;28;20799;-75
2023/09/06 10:02:45;;;;;;;7.05;4.07;;;;;;;25.34;78.32;101926.47;5079939;28;20048;-73
2023/09/06 10:05:16;;;;;;;7.68;3.78;;;;;;;25.40;75.03;101921.84;5074407;28;20107;-73
2023/09/06 10:07:43;;;;;;;7.05;3.63;;;;;;;25.49;73.77;101927.59;5085955;28;20021;-73
2023/09/06 10:10:10;;;;;;;6.25;3.60;;;;;;;25.51;73.16;101930.88;5084641;28;20111;-74
2023/09/06 10:12:40;;;;;;;5.50;3.25;;;;;;;25.59;74.32;101933.06;5083964;28;20086;-73
2023/09/06 10:15:08;;;;;;;10.43;4.22;;;;;;;25.70;72.96;101923.81;5091973;28;20024;-74
2023/09/06 10:17:34;;;;;;;6.30;3.15;;;;;;;25.72;72.15;101923.53;5090834;28;20411;-73
2023/09/06 10:19:59;;;;;;;5.88;3.15;;;;;;;25.86;71.71;101923.81;5091741;28;20031;-73
2023/09/06 10:22:25;;;;;;;4.22;3.15;;;;;;;25.97;72.55;101920.81;5087040;28;20035;-73
2023/09/06 10:24:52;;;;;;;6.35;3.92;;;;;;;26.00;70.76;101919.47;5091698;28;20114;-73
2023/09/06 10:27:17;;;;;;;9.60;3.42;;;;;;;26.09;72.91;101915.06;5091704;28;20115;-73
2023/09/06 10:29:53;;;;;;;6.13;3.42;;;;;;;26.15;71.30;101918.63;5091815;28;20107;-73
2023/09/06 10:32:21;;;;;;;10.43;3.58;;;;;;;26.20;71.11;101919.44;5070729;28;20048;-73
2023/09/06 10:35:07;;;;;;;7.40;3.50;;;;;;;26.23;72.31;101924.34;5083567;28;20032;-73
2023/09/06 10:38:02;;;;;;;6.68;3.35;;;;;;;26.39;73.99;101913.38;5071932;28;20507;-73
2023/09/06 10:40:51;;;;;;;6.90;2.72;;;;;;;26.49;69.72;101917.97;5076716;28;20024;-74
2023/09/06 10:43:19;;;;;;;6.45;2.70;;;;;;;26.51;66.96;101915.78;5090548;28;20044;-74
2023/09/06 10:45:55;;;;;;;7.47;3.03;;;;;;;26.55;67.46;101917.75;5079252;28;20039;-74
2023/09/06 10:48:21;;;;;;;8.35;3.00;;;;;;;26.58;64.26;101921.84;5071766;28;20380;-75
2023/09/06 10:51:03;;;;;;;3.35;2.85;;;;;;;26.66;65.61;101905.66;5087665;28;20028;-74
2023/09/06 10:53:28;;;;;;;5.05;2.65;;;;;;;26.66;61.88;101904.84;5086801;28;20043;-74
2023/09/06 10:55:55;;;;;;;6.45;3.85;;;;;;;26.69;62.99;101911.66;5085378;28;20028;-73
2023/09/06 10:58:25;;;;;;;6.88;2.90;;;;;;;26.62;63.21;101901.84;5077878;28;20495;-74
2023/09/06 11:01:30;;;;;;;4.75;3.15;;;;;;;26.72;67.95;101905.63;5085472;28;20479;-74
2023/09/06 11:03:58;;;;;;;5.60;3.72;;;;;;;26.65;63.62;101895.00;5039383;28;20112;-74
2023/09/06 11:06:24;;;;;;;8.82;3.80;;;;;;;26.75;61.90;101905.06;5048015;28;20157;-74
2023/09/06 11:08:50;;;;;;;3.92;2.72;;;;;;;26.73;60.42;101902.63;5059482;28;20131;-74
2023/09/06 11:11:15;;;;;;;5.45;3.40;;;;;;;26.80;60.38;101908.63;5072686;28;20111;-73
2023/09/06 11:13:44;;;;;;;5.25;2.88;;;;;;;26.78;58.14;101905.34;5087677;28;20482;-74